createdAt,value
2019-01-10T00:00:04.076Z,2.40
2019-01-10T00:01:04.068Z,2.10
2019-01-10T00:02:04.052Z,2.20
2019-01-10T00:03:04.055Z,2.40
2019-01-10T00:04:04.028Z,2.20
2019-01-10T00:05:04.003Z,2.40
2019-01-10T00:06:04.002Z,2.30
2019-01-10T00:07:03.978Z,2.50
2019-01-10T00:08:03.982Z,2.20
2019-01-10T00:09:03.975Z,2.50
2019-01-10T00:10:03.940Z,2.30
2019-01-10T00:11:03.939Z,2.10
2019-01-10T00:12:03.924Z,2.60
2019-01-10T00:13:03.910Z,2.40
2019-01-10T00:14:03.924Z,2.40
2019-01-10T00:15:03.890Z,2.60
2019-01-10T00:16:03.879Z,2.50
2019-01-10T00:17:03.873Z,2.50
2019-01-10T00:18:03.914Z,2.50
2019-01-10T00:19:03.863Z,2.20
2019-01-10T00:20:03.836Z,2.20
2019-01-10T00:21:03.859Z,2.70
2019-01-10T00:22:03.808Z,3.00
2019-01-10T00:23:03.828Z,2.50
2019-01-10T00:24:03.812Z,2.70
2019-01-10T00:25:03.828Z,2.60
2019-01-10T00:26:03.768Z,3.00
2019-01-10T00:27:03.757Z,2.80
2019-01-10T00:28:03.745Z,2.50
2019-01-10T00:29:03.759Z,2.40
2019-01-10T00:30:03.749Z,2.90
2019-01-10T00:31:03.727Z,2.60
2019-01-10T00:32:03.706Z,2.80
2019-01-10T00:33:03.688Z,2.70
2019-01-10T00:34:03.680Z,2.90
2019-01-10T00:35:03.693Z,3.20
2019-01-10T00:36:03.664Z,2.70
2019-01-10T00:37:03.650Z,3.00
2019-01-10T00:38:03.649Z,2.50
2019-01-10T00:39:03.640Z,2.80
2019-01-10T00:40:03.654Z,2.80
2019-01-10T00:41:03.605Z,2.60
2019-01-10T00:42:03.627Z,2.60
2019-01-10T00:43:03.591Z,3.10
2019-01-10T00:44:03.574Z,2.60
2019-01-10T00:45:03.576Z,2.70
2019-01-10T00:46:03.573Z,2.90
2019-01-10T00:47:03.563Z,3.10
2019-01-10T00:48:03.682Z,2.80
2019-01-10T00:49:03.517Z,3.30
2019-01-10T00:50:03.515Z,3.10
2019-01-10T00:51:03.530Z,2.80
2019-01-10T00:52:03.538Z,3.00
2019-01-10T00:53:03.481Z,2.90
2019-01-10T00:54:03.467Z,2.90
2019-01-10T00:55:03.467Z,3.30
2019-01-10T00:56:03.439Z,2.90
2019-01-10T00:57:03.433Z,2.70
2019-01-10T00:58:03.431Z,2.60
2019-01-10T00:59:03.435Z,3.00
2019-01-10T01:00:03.442Z,3.10
2019-01-10T01:01:03.407Z,2.90
2019-01-10T01:02:03.384Z,3.20
2019-01-10T01:03:03.364Z,3.00
2019-01-10T01:04:03.355Z,3.20
2019-01-10T01:05:03.342Z,3.00
2019-01-10T01:06:03.345Z,3.10
2019-01-10T01:07:03.323Z,2.90
2019-01-10T01:08:03.306Z,2.80
2019-01-10T01:09:03.316Z,2.90
2019-01-10T01:10:03.286Z,2.90
2019-01-10T01:11:03.296Z,3.10
2019-01-10T01:12:03.287Z,3.00
2019-01-10T01:13:03.262Z,3.20
2019-01-10T01:14:03.244Z,2.80
2019-01-10T01:15:03.231Z,2.90
2019-01-10T01:16:03.267Z,3.00
2019-01-10T01:17:03.210Z,3.10
2019-01-10T01:18:03.202Z,2.90
2019-01-10T01:19:03.215Z,3.00
2019-01-10T01:20:03.172Z,2.90
2019-01-10T01:21:03.178Z,3.20
2019-01-10T01:22:03.174Z,3.00
2019-01-10T01:23:03.145Z,3.00
2019-01-10T01:24:03.132Z,3.20
2019-01-10T01:25:03.165Z,3.10
2019-01-10T01:26:03.148Z,3.50
2019-01-10T01:27:03.102Z,3.50
2019-01-10T01:28:03.085Z,2.90
2019-01-10T01:29:03.104Z,2.90
2019-01-10T01:30:03.071Z,3.00
2019-01-10T01:31:03.086Z,3.00
2019-01-10T01:32:03.055Z,3.20
2019-01-10T01:33:03.052Z,3.00
2019-01-10T01:34:03.037Z,3.10
2019-01-10T01:35:03.033Z,3.10
2019-01-10T01:36:03.006Z,3.10
2019-01-10T01:37:03.019Z,3.00
2019-01-10T01:38:03.000Z,3.00
2019-01-10T01:39:02.971Z,3.10
2019-01-10T01:40:02.957Z,3.10
2019-01-10T01:41:02.990Z,3.20
2019-01-10T01:42:02.953Z,3.20
2019-01-10T01:43:07.514Z,2.90
2019-01-10T01:44:02.915Z,2.70
2019-01-10T01:45:02.914Z,2.90
2019-01-10T01:46:02.913Z,2.70
2019-01-10T01:47:02.913Z,3.00
2019-01-10T01:48:02.871Z,2.90
2019-01-10T01:49:02.866Z,2.90
2019-01-10T01:50:02.845Z,3.20
2019-01-10T01:51:02.847Z,2.80
2019-01-10T01:52:02.861Z,3.20
2019-01-10T01:53:02.844Z,3.20
2019-01-10T01:54:02.802Z,3.60
2019-01-10T01:55:02.794Z,2.80
2019-01-10T01:56:02.820Z,3.10
2019-01-10T01:57:02.768Z,3.30
2019-01-10T01:58:02.813Z,3.40
2019-01-10T01:59:02.759Z,3.20
2019-01-10T02:00:02.762Z,3.60
2019-01-10T02:01:02.724Z,3.50
2019-01-10T02:02:02.711Z,3.00
2019-01-10T02:03:02.720Z,3.50
2019-01-10T02:04:02.700Z,2.90
2019-01-10T02:05:02.701Z,3.00
2019-01-10T02:06:02.703Z,3.30
2019-01-10T02:07:02.679Z,3.20
2019-01-10T02:08:02.659Z,3.20
2019-01-10T02:09:02.657Z,2.90
2019-01-10T02:10:02.636Z,2.80
2019-01-10T02:11:02.620Z,2.90
2019-01-10T02:12:02.626Z,3.60
2019-01-10T02:13:02.592Z,3.00
2019-01-10T02:14:02.603Z,3.40
2019-01-10T02:15:02.618Z,3.10
2019-01-10T02:16:02.565Z,3.10
2019-01-10T02:17:02.548Z,3.00
2019-01-10T02:18:02.578Z,2.80
2019-01-10T02:19:02.528Z,3.20
2019-01-10T02:20:02.534Z,3.00
2019-01-10T02:21:02.499Z,2.90
2019-01-10T02:22:02.486Z,3.10
2019-01-10T02:23:02.488Z,2.90
2019-01-10T02:24:02.500Z,3.00
2019-01-10T02:25:02.468Z,3.50
2019-01-10T02:26:02.445Z,3.10
2019-01-10T02:27:02.439Z,3.00
2019-01-10T02:28:02.480Z,3.30
2019-01-10T02:29:02.437Z,3.50
2019-01-10T02:30:02.407Z,3.10
2019-01-10T02:31:02.402Z,3.10
2019-01-10T02:32:02.378Z,3.30
2019-01-10T02:33:02.382Z,3.40
2019-01-10T02:34:02.382Z,3.20
2019-01-10T02:35:02.362Z,3.20
2019-01-10T02:36:02.337Z,3.20
2019-01-10T02:37:02.324Z,3.10
2019-01-10T02:38:02.328Z,3.50
2019-01-10T02:39:02.361Z,3.20
2019-01-10T02:40:02.314Z,3.50
2019-01-10T02:41:02.824Z,2.80
2019-01-10T02:42:02.268Z,3.30
2019-01-10T02:43:02.278Z,3.00
2019-01-10T02:44:02.261Z,2.80
2019-01-10T02:45:02.276Z,3.10
2019-01-10T02:46:02.235Z,3.20
2019-01-10T02:47:02.231Z,3.20
2019-01-10T02:48:02.219Z,3.20
2019-01-10T02:49:02.245Z,3.30
2019-01-10T02:50:02.216Z,3.00
2019-01-10T02:51:02.174Z,3.50
2019-01-10T02:52:02.178Z,3.10
2019-01-10T02:53:02.156Z,3.20
2019-01-10T02:54:02.145Z,3.00
2019-01-10T02:55:02.152Z,3.20
2019-01-10T02:56:02.130Z,3.10
2019-01-10T02:57:02.111Z,3.40
2019-01-10T02:58:02.106Z,3.20
2019-01-10T02:59:02.091Z,3.30
2019-01-10T03:00:02.115Z,3.20
2019-01-10T03:01:02.058Z,3.20
2019-01-10T03:02:02.076Z,3.10
2019-01-10T03:03:02.058Z,3.00
2019-01-10T03:04:02.028Z,3.00
2019-01-10T03:05:02.044Z,2.90
2019-01-10T03:06:02.033Z,2.70
2019-01-10T03:07:02.002Z,3.10
2019-01-10T03:08:01.985Z,3.10
2019-01-10T03:09:02.006Z,2.80
2019-01-10T03:10:01.977Z,2.90
2019-01-10T03:11:01.974Z,3.30
2019-01-10T03:12:01.941Z,3.00
2019-01-10T03:13:01.959Z,2.90
2019-01-10T03:14:01.922Z,2.90
2019-01-10T03:15:01.910Z,3.00
2019-01-10T03:16:01.998Z,2.70
2019-01-10T03:17:01.903Z,2.90
2019-01-10T03:18:01.882Z,2.70
2019-01-10T03:19:01.872Z,2.80
2019-01-10T03:20:01.879Z,2.70
2019-01-10T03:21:01.867Z,2.90
2019-01-10T03:22:01.834Z,2.90
2019-01-10T03:23:01.822Z,3.10
2019-01-10T03:24:01.813Z,2.70
2019-01-10T03:25:01.803Z,2.70
2019-01-10T03:26:01.814Z,2.90
2019-01-10T03:27:01.774Z,2.80
2019-01-10T03:28:01.784Z,2.90
2019-01-10T03:29:01.754Z,2.80
2019-01-10T03:30:01.741Z,3.00
2019-01-10T03:31:01.760Z,3.00
2019-01-10T03:32:01.745Z,3.00
2019-01-10T03:33:01.711Z,2.90
2019-01-10T03:34:01.698Z,2.90
2019-01-10T03:35:01.689Z,2.80
2019-01-10T03:36:01.779Z,2.80
2019-01-10T03:37:01.701Z,2.60
2019-01-10T03:38:01.705Z,2.90
2019-01-10T03:39:01.643Z,2.80
2019-01-10T03:40:01.675Z,3.00
2019-01-10T03:41:01.637Z,3.10
2019-01-10T03:42:01.633Z,2.90
2019-01-10T03:43:01.616Z,3.00
2019-01-10T03:44:01.590Z,2.90
2019-01-10T03:45:01.589Z,3.00
2019-01-10T03:46:01.581Z,3.00
2019-01-10T03:47:01.588Z,2.70
2019-01-10T03:48:01.554Z,3.00
2019-01-10T03:49:01.541Z,3.00
2019-01-10T03:50:01.527Z,3.00
2019-01-10T03:51:01.514Z,3.10
2019-01-10T03:52:01.542Z,2.60
2019-01-10T03:53:01.541Z,3.20
2019-01-10T03:54:01.490Z,3.20
2019-01-10T03:55:01.485Z,3.50
2019-01-10T03:56:01.475Z,2.90
2019-01-10T03:57:01.472Z,3.10
2019-01-10T03:58:01.456Z,3.10
2019-01-10T03:59:01.434Z,3.20
2019-01-10T04:00:01.426Z,3.20
2019-01-10T04:01:01.448Z,2.90
2019-01-10T04:02:01.434Z,3.20
2019-01-10T04:03:01.395Z,3.00
2019-01-10T04:04:01.388Z,3.10
2019-01-10T04:05:01.384Z,3.30
2019-01-10T04:06:01.374Z,2.80
2019-01-10T04:07:01.363Z,3.10
2019-01-10T04:08:01.334Z,3.10
2019-01-10T04:09:01.322Z,2.90
2019-01-10T04:10:01.314Z,3.20
2019-01-10T04:11:01.345Z,3.10
2019-01-10T04:12:03.358Z,3.00
2019-01-10T04:13:01.273Z,3.10
2019-01-10T04:14:01.262Z,3.20
2019-01-10T04:15:01.251Z,3.10
2019-01-10T04:16:01.258Z,3.30
2019-01-10T04:17:01.267Z,3.20
2019-01-10T04:18:01.240Z,3.10
2019-01-10T04:19:01.227Z,3.20
2019-01-10T04:20:01.198Z,3.50
2019-01-10T04:21:01.199Z,3.20
2019-01-10T04:22:01.193Z,3.20
2019-01-10T04:23:01.220Z,3.40
2019-01-10T04:24:01.155Z,3.20
2019-01-10T04:25:01.230Z,3.30
2019-01-10T04:26:01.140Z,3.30
2019-01-10T04:27:01.150Z,3.00
2019-01-10T04:28:01.127Z,3.20
2019-01-10T04:29:01.127Z,3.20
2019-01-10T04:30:01.089Z,3.30
2019-01-10T04:31:01.082Z,3.00
2019-01-10T04:32:01.076Z,2.90
2019-01-10T04:33:01.061Z,2.80
2019-01-10T04:34:01.073Z,3.30
2019-01-10T04:35:01.039Z,3.00
2019-01-10T04:36:01.035Z,3.70
2019-01-10T04:37:01.041Z,3.50
2019-01-10T04:38:01.008Z,3.20
2019-01-10T04:39:01.023Z,3.30
2019-01-10T04:40:00.987Z,3.70
2019-01-10T04:41:00.968Z,3.30
2019-01-10T04:42:00.966Z,3.30
2019-01-10T04:43:00.945Z,3.20
2019-01-10T04:44:06.945Z,3.50
2019-01-10T04:45:01.996Z,3.40
2019-01-10T04:46:00.927Z,3.40
2019-01-10T04:47:00.900Z,3.20
2019-01-10T04:48:00.902Z,3.40
2019-01-10T04:49:00.887Z,3.60
2019-01-10T04:50:00.895Z,3.70
2019-01-10T04:51:00.876Z,3.50
2019-01-10T04:52:00.865Z,3.50
2019-01-10T04:53:00.842Z,3.50
2019-01-10T04:54:00.837Z,3.60
2019-01-10T04:55:00.850Z,3.50
2019-01-10T04:56:00.803Z,3.40
2019-01-10T04:57:00.832Z,3.50
2019-01-10T04:58:00.792Z,3.50
2019-01-10T04:59:00.776Z,3.30
2019-01-10T05:00:00.799Z,3.50
2019-01-10T05:01:00.759Z,3.30
2019-01-10T05:02:00.736Z,3.50
2019-01-10T05:03:00.745Z,3.50
2019-01-10T05:04:00.717Z,3.70
2019-01-10T05:05:01.898Z,3.70
2019-01-10T05:06:00.757Z,4.30
2019-01-10T05:07:00.705Z,4.10
2019-01-10T05:08:00.674Z,3.40
2019-01-10T05:09:00.685Z,3.60
2019-01-10T05:10:00.676Z,3.90
2019-01-10T05:11:00.682Z,3.50
2019-01-10T05:12:00.632Z,3.80
2019-01-10T05:13:00.623Z,3.30
2019-01-10T05:14:00.613Z,3.40
2019-01-10T05:15:00.619Z,3.40
2019-01-10T05:16:00.643Z,3.90
2019-01-10T05:17:00.596Z,3.90
2019-01-10T05:18:00.576Z,3.80
2019-01-10T05:19:00.578Z,3.30
2019-01-10T05:20:00.562Z,3.60
2019-01-10T05:21:00.576Z,3.30
2019-01-10T05:22:00.522Z,3.80
2019-01-10T05:23:00.523Z,3.60
2019-01-10T05:24:00.504Z,3.40
2019-01-10T05:25:00.612Z,3.70
2019-01-10T05:26:00.500Z,3.80
2019-01-10T05:27:00.501Z,3.30
2019-01-10T05:28:00.457Z,3.40
2019-01-10T05:29:00.453Z,3.90
2019-01-10T05:30:00.445Z,3.40
2019-01-10T05:31:00.441Z,3.50
2019-01-10T05:32:02.533Z,3.10
2019-01-10T05:33:00.433Z,3.70
2019-01-10T05:34:00.415Z,3.50
2019-01-10T05:35:00.401Z,3.60
2019-01-10T05:36:00.382Z,3.20
2019-01-10T05:37:00.382Z,3.70
2019-01-10T05:38:00.370Z,3.30
2019-01-10T05:39:00.339Z,3.30
2019-01-10T05:40:00.327Z,3.40
2019-01-10T05:41:00.322Z,3.60
2019-01-10T05:42:00.335Z,3.80
2019-01-10T05:43:00.328Z,4.00
2019-01-10T05:44:00.298Z,3.90
2019-01-10T05:45:00.353Z,3.70
2019-01-10T05:46:00.264Z,3.50
2019-01-10T05:47:00.279Z,3.50
2019-01-10T05:48:00.407Z,3.80
2019-01-10T05:49:00.236Z,3.70
2019-01-10T05:50:00.230Z,3.60
2019-01-10T05:51:00.211Z,3.60
2019-01-10T05:52:00.226Z,3.50
2019-01-10T05:53:00.210Z,3.70
2019-01-10T05:54:00.200Z,3.70
2019-01-10T05:55:00.319Z,3.70
2019-01-10T05:56:00.171Z,3.30
2019-01-10T05:57:00.157Z,3.80
2019-01-10T05:58:00.145Z,4.10
2019-01-10T05:59:00.154Z,3.70
2019-01-10T06:00:00.170Z,3.80
2019-01-10T06:01:00.101Z,3.80
2019-01-10T06:02:00.089Z,3.50
2019-01-10T06:03:00.106Z,3.80
2019-01-10T06:04:00.080Z,3.90
2019-01-10T06:05:00.140Z,4.00
2019-01-10T06:06:00.048Z,3.90
2019-01-10T06:07:00.046Z,3.70
2019-01-10T06:08:00.044Z,3.70
2019-01-10T06:09:00.020Z,3.90
2019-01-10T06:10:00.021Z,4.20
2019-01-10T06:11:00.011Z,4.10
2019-01-10T06:12:00.001Z,3.70
2019-01-10T06:12:59.989Z,4.00
2019-01-10T06:13:59.974Z,3.90
2019-01-10T06:15:00.035Z,4.30
2019-01-10T06:15:59.949Z,3.80
2019-01-10T06:16:59.930Z,3.90
2019-01-10T06:17:59.917Z,3.80
2019-01-10T06:18:59.919Z,3.80
2019-01-10T06:19:59.891Z,3.90
2019-01-10T06:20:59.881Z,4.40
2019-01-10T06:21:59.876Z,4.00
2019-01-10T06:22:59.887Z,3.90
2019-01-10T06:23:59.882Z,3.80
2019-01-10T06:24:59.838Z,4.20
2019-01-10T06:25:59.844Z,3.80
2019-01-10T06:26:59.824Z,4.10
2019-01-10T06:27:59.809Z,4.10
2019-01-10T06:28:59.829Z,3.90
2019-01-10T06:30:00.013Z,4.20
2019-01-10T06:30:59.779Z,4.00
2019-01-10T06:31:59.763Z,3.70
2019-01-10T06:32:59.791Z,3.60
2019-01-10T06:33:59.778Z,4.00
2019-01-10T06:34:59.731Z,4.10
2019-01-10T06:35:59.724Z,4.30
2019-01-10T06:36:59.705Z,4.00
2019-01-10T06:37:59.696Z,4.30
2019-01-10T06:38:59.697Z,4.00
2019-01-10T06:39:59.676Z,3.90
2019-01-10T06:40:59.666Z,4.20
2019-01-10T06:41:59.658Z,4.20
2019-01-10T06:42:59.642Z,3.90
2019-01-10T06:43:59.652Z,3.60
2019-01-10T06:44:59.619Z,3.70
2019-01-10T06:45:59.608Z,4.00
2019-01-10T06:46:59.598Z,4.20
2019-01-10T06:47:59.593Z,4.00
2019-01-10T06:48:59.640Z,3.70
2019-01-10T06:49:59.562Z,3.50
2019-01-10T06:50:59.555Z,3.60
2019-01-10T06:51:59.551Z,4.10
2019-01-10T06:52:59.530Z,3.80
2019-01-10T06:53:59.540Z,3.40
2019-01-10T06:54:59.563Z,3.60
2019-01-10T06:55:59.589Z,3.90
2019-01-10T06:56:59.491Z,3.60
2019-01-10T06:57:59.485Z,3.50
2019-01-10T06:58:59.562Z,4.10
2019-01-10T06:59:59.511Z,3.40
2019-01-10T07:00:59.475Z,3.50
2019-01-10T07:01:59.445Z,3.80
2019-01-10T07:02:59.435Z,3.60
2019-01-10T07:03:59.412Z,3.50
2019-01-10T07:04:59.393Z,3.80
2019-01-10T07:05:59.437Z,3.80
2019-01-10T07:06:59.397Z,3.70
2019-01-10T07:07:59.367Z,3.30
2019-01-10T07:08:59.364Z,3.60
2019-01-10T07:09:59.464Z,3.90
2019-01-10T07:10:59.347Z,3.60
2019-01-10T07:11:59.319Z,3.50
2019-01-10T07:12:59.308Z,3.80
2019-01-10T07:13:59.301Z,3.90
2019-01-10T07:14:59.286Z,3.80
2019-01-10T07:15:59.296Z,3.50
2019-01-10T07:16:59.268Z,3.40
2019-01-10T07:17:59.257Z,3.20
2019-01-10T07:18:59.244Z,3.60
2019-01-10T07:19:59.230Z,3.50
2019-01-10T07:20:59.265Z,3.70
2019-01-10T07:21:59.208Z,3.50
2019-01-10T07:22:59.197Z,3.90
2019-01-10T07:23:59.186Z,3.60
2019-01-10T07:24:59.177Z,3.60
2019-01-10T07:25:59.202Z,3.90
2019-01-10T07:26:59.154Z,3.60
2019-01-10T07:27:59.142Z,3.40
2019-01-10T07:28:59.132Z,4.30
2019-01-10T07:29:59.750Z,4.30
2019-01-10T07:30:59.182Z,4.40
2019-01-10T07:31:59.102Z,3.70
2019-01-10T07:32:59.093Z,3.60
2019-01-10T07:33:59.078Z,3.60
2019-01-10T07:34:59.072Z,3.40
2019-01-10T07:35:59.063Z,3.80
2019-01-10T07:36:59.060Z,3.40
2019-01-10T07:37:59.030Z,3.30
2019-01-10T07:38:59.027Z,3.40
2019-01-10T07:39:59.046Z,3.60
2019-01-10T07:40:59.003Z,3.80
2019-01-10T07:41:59.017Z,3.60
2019-01-10T07:42:58.995Z,3.90
2019-01-10T07:43:58.965Z,3.60
2019-01-10T07:45:02.878Z,3.80
2019-01-10T07:45:58.943Z,3.80
2019-01-10T07:46:58.946Z,3.50
2019-01-10T07:47:58.919Z,3.80
2019-01-10T07:48:58.912Z,4.00
2019-01-10T07:49:58.901Z,3.40
2019-01-10T07:50:58.893Z,3.60
2019-01-10T07:51:58.901Z,3.40
2019-01-10T07:52:58.866Z,3.50
2019-01-10T07:53:58.860Z,3.70
2019-01-10T07:54:58.847Z,3.80
2019-01-10T07:55:58.845Z,3.40
2019-01-10T07:56:58.883Z,3.70
2019-01-10T07:57:58.830Z,3.50
2019-01-10T07:58:58.800Z,3.40
2019-01-10T07:59:58.793Z,3.20
2019-01-10T08:00:58.789Z,3.20
2019-01-10T08:01:58.778Z,7.00
2019-01-10T08:02:58.774Z,3.80
2019-01-10T08:03:58.744Z,3.20
2019-01-10T08:04:58.741Z,3.10
2019-01-10T08:05:58.721Z,2.90
2019-01-10T08:06:58.717Z,3.10
2019-01-10T08:07:58.723Z,3.10
2019-01-10T08:08:58.696Z,3.30
2019-01-10T08:09:58.690Z,3.10
2019-01-10T08:10:58.670Z,3.40
2019-01-10T08:12:00.661Z,3.40
2019-01-10T08:12:58.673Z,3.50
2019-01-10T08:13:58.648Z,3.40
2019-01-10T08:14:58.634Z,3.60
2019-01-10T08:15:58.612Z,3.40
2019-01-10T08:16:58.602Z,3.20
2019-01-10T08:17:58.617Z,3.50
2019-01-10T08:18:58.580Z,3.70
2019-01-10T08:19:58.572Z,3.20
2019-01-10T08:20:58.566Z,3.70
2019-01-10T08:21:58.549Z,3.50
2019-01-10T08:22:58.559Z,3.40
2019-01-10T08:23:58.530Z,3.30
2019-01-10T08:24:58.583Z,4.00
2019-01-10T08:25:58.513Z,3.40
2019-01-10T08:26:58.494Z,3.90
2019-01-10T08:27:58.514Z,3.70
2019-01-10T08:28:58.472Z,3.50
2019-01-10T08:29:58.464Z,4.30
2019-01-10T08:30:58.448Z,3.70
2019-01-10T08:31:58.443Z,4.70
2019-01-10T08:32:58.429Z,3.30
2019-01-10T08:33:58.432Z,3.60
2019-01-10T08:34:58.416Z,4.60
2019-01-10T08:35:58.403Z,3.80
2019-01-10T08:36:58.394Z,3.80
2019-01-10T08:37:58.379Z,3.40
2019-01-10T08:38:58.379Z,3.50
2019-01-10T08:39:58.355Z,3.50
2019-01-10T08:40:58.350Z,3.40
2019-01-10T08:41:58.333Z,3.90
2019-01-10T08:42:58.314Z,3.70
2019-01-10T08:43:58.328Z,3.80
2019-01-10T08:44:58.292Z,4.30
2019-01-10T08:45:58.282Z,3.50
2019-01-10T08:46:58.293Z,4.40
2019-01-10T08:47:58.259Z,3.80
2019-01-10T08:48:58.269Z,3.60
2019-01-10T08:49:58.244Z,3.70
2019-01-10T08:50:58.225Z,4.10
2019-01-10T08:51:58.216Z,3.90
2019-01-10T08:52:58.207Z,4.00
2019-01-10T08:53:58.212Z,4.50
2019-01-10T08:54:58.188Z,3.90
2019-01-10T08:55:58.181Z,4.30
2019-01-10T08:56:58.161Z,3.80
2019-01-10T08:57:58.149Z,3.80
2019-01-10T08:58:58.167Z,4.00
2019-01-10T08:59:58.134Z,3.80
2019-01-10T09:00:58.122Z,3.90
2019-01-10T09:01:58.111Z,4.00
2019-01-10T09:02:58.098Z,4.00
2019-01-10T09:03:58.090Z,3.80
2019-01-10T09:04:58.088Z,4.10
2019-01-10T09:05:58.066Z,4.00
2019-01-10T09:06:58.058Z,4.20
2019-01-10T09:07:58.042Z,4.40
2019-01-10T09:08:58.053Z,3.90
2019-01-10T09:09:58.049Z,4.00
2019-01-10T09:10:58.014Z,4.10
2019-01-10T09:11:58.003Z,4.20
2019-01-10T09:12:57.989Z,3.90
2019-01-10T09:13:57.977Z,3.60
2019-01-10T09:14:57.980Z,3.60
2019-01-10T09:15:57.968Z,4.00
2019-01-10T09:16:57.943Z,3.70
2019-01-10T09:17:57.946Z,3.50
2019-01-10T09:18:57.932Z,3.60
2019-01-10T09:19:57.926Z,3.50
2019-01-10T09:21:04.199Z,3.80
2019-01-10T09:21:58.890Z,3.30
2019-01-10T09:22:57.883Z,3.80
2019-01-10T09:23:57.870Z,3.70
2019-01-10T09:24:57.871Z,3.60
2019-01-10T09:25:57.856Z,3.80
2019-01-10T09:26:57.838Z,3.30
2019-01-10T09:27:57.833Z,3.30
2019-01-10T09:28:57.814Z,3.40
2019-01-10T09:29:57.832Z,3.20
2019-01-10T09:30:57.815Z,3.20
2019-01-10T09:31:57.783Z,3.40
2019-01-10T09:32:57.774Z,3.30
2019-01-10T09:33:57.754Z,3.10
2019-01-10T09:34:57.751Z,3.30
2019-01-10T09:35:57.761Z,3.00
2019-01-10T09:36:57.728Z,3.40
2019-01-10T09:37:57.715Z,3.00
2019-01-10T09:38:57.707Z,2.80
2019-01-10T09:39:57.696Z,3.10
2019-01-10T09:40:57.709Z,3.10
2019-01-10T09:41:57.683Z,3.30
2019-01-10T09:42:57.660Z,3.20
2019-01-10T09:43:57.652Z,3.40
2019-01-10T09:44:57.678Z,3.20
2019-01-10T09:45:57.666Z,3.50
2019-01-10T09:46:57.617Z,3.30
2019-01-10T09:47:57.609Z,3.30
2019-01-10T09:48:57.606Z,3.40
2019-01-10T09:49:57.689Z,3.20
2019-01-10T09:50:57.592Z,3.20
2019-01-10T09:51:57.577Z,3.40
2019-01-10T09:52:57.555Z,3.20
2019-01-10T09:53:57.541Z,3.10
2019-01-10T09:54:57.526Z,3.10
2019-01-10T09:55:57.538Z,3.30
2019-01-10T09:56:57.521Z,3.30
2019-01-10T09:57:57.495Z,3.20
2019-01-10T09:58:57.490Z,3.50
2019-01-10T09:59:57.474Z,3.30
2019-01-10T10:00:57.460Z,3.10
2019-01-10T10:01:57.491Z,3.00
2019-01-10T10:02:57.452Z,3.30
2019-01-10T10:03:57.429Z,3.50
2019-01-10T10:04:57.418Z,3.40
2019-01-10T10:05:57.410Z,2.90
2019-01-10T10:06:57.448Z,2.90
2019-01-10T10:07:57.389Z,3.10
2019-01-10T10:08:57.378Z,3.10
2019-01-10T10:09:57.366Z,2.70
2019-01-10T10:10:57.359Z,3.30
2019-01-10T10:11:57.381Z,2.80
2019-01-10T10:12:57.358Z,2.80
2019-01-10T10:13:57.329Z,3.00
2019-01-10T10:14:57.313Z,2.90
2019-01-10T10:15:57.306Z,2.70
2019-01-10T10:16:57.319Z,3.00
2019-01-10T10:17:57.295Z,2.80
2019-01-10T10:18:57.272Z,2.90
2019-01-10T10:19:57.258Z,3.10
2019-01-10T10:20:57.266Z,3.30
2019-01-10T10:21:57.235Z,3.60
2019-01-10T10:22:57.250Z,3.00
2019-01-10T10:23:57.218Z,2.90
2019-01-10T10:24:57.217Z,2.80
2019-01-10T10:25:57.209Z,3.30
2019-01-10T10:26:57.194Z,3.30
2019-01-10T10:27:57.210Z,3.10
2019-01-10T10:28:57.172Z,2.90
2019-01-10T10:29:57.158Z,2.90
2019-01-10T10:30:57.138Z,3.00
2019-01-10T10:31:57.133Z,3.10
2019-01-10T10:32:57.130Z,2.80
2019-01-10T10:33:57.103Z,3.00
2019-01-10T10:34:57.111Z,2.80
2019-01-10T10:35:57.088Z,2.90
2019-01-10T10:36:57.074Z,3.10
2019-01-10T10:37:57.078Z,3.30
2019-01-10T10:38:57.051Z,2.80
2019-01-10T10:39:57.041Z,2.90
2019-01-10T10:40:57.037Z,3.00
2019-01-10T10:41:57.016Z,3.10
2019-01-10T10:42:57.055Z,3.40
2019-01-10T10:43:56.998Z,3.50
2019-01-10T10:44:56.984Z,3.20
2019-01-10T10:46:01.697Z,3.00
2019-01-10T10:46:57.962Z,3.20
2019-01-10T10:47:56.987Z,3.10
2019-01-10T10:48:56.940Z,3.10
2019-01-10T10:49:56.931Z,3.20
2019-01-10T10:50:56.919Z,2.90
2019-01-10T10:51:56.918Z,3.20
2019-01-10T10:52:56.901Z,3.20
2019-01-10T10:53:56.923Z,2.80
2019-01-10T10:54:56.877Z,3.20
2019-01-10T10:55:56.876Z,3.10
2019-01-10T10:56:56.861Z,3.40
2019-01-10T10:57:56.850Z,3.30
2019-01-10T10:58:56.849Z,3.20
2019-01-10T10:59:56.835Z,3.70
2019-01-10T11:00:56.812Z,3.40
2019-01-10T11:01:56.898Z,3.10
2019-01-10T11:02:56.789Z,3.60
2019-01-10T11:03:56.813Z,3.30
2019-01-10T11:04:56.773Z,3.30
2019-01-10T11:05:56.764Z,3.30
2019-01-10T11:06:56.752Z,4.10
2019-01-10T11:07:56.738Z,3.60
2019-01-10T11:08:56.753Z,3.40
2019-01-10T11:09:56.720Z,3.40
2019-01-10T11:10:56.702Z,3.40
2019-01-10T11:11:56.692Z,3.40
2019-01-10T11:12:56.680Z,3.60
2019-01-10T11:13:56.697Z,3.60
2019-01-10T11:14:56.658Z,3.60
2019-01-10T11:15:56.655Z,3.70
2019-01-10T11:16:56.639Z,3.30
2019-01-10T11:17:56.624Z,4.10
2019-01-10T11:18:56.616Z,3.90
2019-01-10T11:19:56.633Z,3.50
2019-01-10T11:20:56.635Z,3.50
2019-01-10T11:21:56.706Z,4.20
2019-01-10T11:22:57.167Z,3.80
2019-01-10T11:23:56.836Z,3.70
2019-01-10T11:24:57.128Z,3.80
2019-01-10T11:25:56.551Z,3.60
2019-01-10T11:26:57.558Z,3.90
2019-01-10T11:27:56.893Z,4.20
2019-01-10T11:28:56.569Z,3.70
2019-01-10T11:29:56.561Z,3.90
2019-01-10T11:30:56.828Z,4.30
2019-01-10T11:31:56.571Z,3.80
2019-01-10T11:32:56.464Z,4.00
2019-01-10T11:33:56.453Z,4.00
2019-01-10T11:34:56.443Z,4.20
2019-01-10T11:35:56.455Z,4.20
2019-01-10T11:36:56.420Z,3.90
2019-01-10T11:37:56.418Z,4.10
2019-01-10T11:38:56.398Z,4.60
2019-01-10T11:39:56.421Z,4.20
2019-01-10T11:40:56.385Z,4.30
2019-01-10T11:41:56.386Z,4.30
2019-01-10T11:42:56.354Z,4.90
2019-01-10T11:43:56.346Z,4.50
2019-01-10T11:44:56.348Z,4.80
2019-01-10T11:45:56.354Z,4.40
2019-01-10T11:46:56.319Z,4.60
2019-01-10T11:47:56.326Z,4.40
2019-01-10T11:48:56.294Z,4.80
2019-01-10T11:49:56.287Z,4.30
2019-01-10T11:50:56.301Z,4.70
2019-01-10T11:51:56.264Z,4.70
2019-01-10T11:52:56.279Z,5.10
2019-01-10T11:53:56.241Z,4.40
2019-01-10T11:54:56.231Z,4.40
2019-01-10T11:55:56.249Z,4.60
2019-01-10T11:56:56.215Z,4.70
2019-01-10T11:57:56.210Z,4.60
2019-01-10T11:58:56.209Z,4.40
2019-01-10T11:59:56.196Z,4.40
2019-01-10T12:00:56.199Z,3.90
2019-01-10T12:01:56.153Z,4.30
2019-01-10T12:02:56.152Z,4.00
2019-01-10T12:03:56.128Z,3.70
2019-01-10T12:04:56.124Z,3.70
2019-01-10T12:05:56.132Z,3.80
2019-01-10T12:06:56.101Z,3.70
2019-01-10T12:07:56.090Z,3.50
2019-01-10T12:08:56.085Z,3.60
2019-01-10T12:09:56.064Z,3.60
2019-01-10T12:10:56.093Z,3.70
2019-01-10T12:11:56.048Z,3.80
2019-01-10T12:12:56.043Z,3.40
2019-01-10T12:13:56.027Z,3.70
2019-01-10T12:14:56.012Z,3.50
2019-01-10T12:15:56.023Z,3.50
2019-01-10T12:16:55.990Z,3.70
2019-01-10T12:17:55.982Z,3.60
2019-01-10T12:18:59.329Z,4.20
2019-01-10T12:19:55.965Z,3.80
2019-01-10T12:20:55.971Z,3.70
2019-01-10T12:21:55.933Z,3.80
2019-01-10T12:22:55.919Z,3.90
2019-01-10T12:23:55.917Z,3.70
2019-01-10T12:24:55.901Z,3.60
2019-01-10T12:25:55.922Z,3.80
2019-01-10T12:26:55.890Z,3.70
2019-01-10T12:27:55.870Z,3.80
2019-01-10T12:28:55.857Z,3.60
2019-01-10T12:29:55.851Z,3.80
2019-01-10T12:30:55.920Z,3.90
2019-01-10T12:31:55.881Z,3.80
2019-01-10T12:32:55.825Z,4.00
2019-01-10T12:33:55.802Z,3.80
2019-01-10T12:34:55.818Z,4.10
2019-01-10T12:35:55.823Z,3.80
2019-01-10T12:37:00.535Z,4.10
2019-01-10T12:37:56.781Z,4.20
2019-01-10T12:38:55.751Z,4.00
2019-01-10T12:39:55.751Z,6.00
2019-01-10T12:40:55.732Z,4.30
2019-01-10T12:41:55.866Z,4.40
2019-01-10T12:42:55.747Z,4.00
2019-01-10T12:43:55.718Z,3.80
2019-01-10T12:44:55.688Z,3.80
2019-01-10T12:45:55.673Z,3.80
2019-01-10T12:46:55.685Z,4.10
2019-01-10T12:47:55.669Z,4.00
2019-01-10T12:48:55.675Z,3.90
2019-01-10T12:49:55.653Z,3.80
2019-01-10T12:50:55.619Z,4.10
2019-01-10T12:51:55.636Z,3.80
2019-01-10T12:52:55.595Z,4.00
2019-01-10T12:53:55.600Z,3.70
2019-01-10T12:54:55.576Z,4.30
2019-01-10T12:55:55.573Z,4.40
2019-01-10T12:56:55.576Z,4.70
2019-01-10T12:57:55.587Z,3.80
2019-01-10T12:58:55.550Z,4.20
2019-01-10T12:59:55.536Z,4.10
2019-01-10T13:00:55.509Z,4.10
2019-01-10T13:01:55.521Z,3.80
2019-01-10T13:02:55.507Z,3.80
2019-01-10T13:03:55.481Z,4.00
2019-01-10T13:04:55.473Z,4.10
2019-01-10T13:05:55.468Z,3.90
2019-01-10T13:06:55.466Z,3.90
2019-01-10T13:08:03.487Z,4.00
2019-01-10T13:08:56.418Z,3.70
2019-01-10T13:09:55.412Z,3.60
2019-01-10T13:10:55.396Z,3.70
2019-01-10T13:11:55.387Z,3.60
2019-01-10T13:12:55.378Z,3.40
2019-01-10T13:13:55.693Z,3.50
2019-01-10T13:14:55.357Z,3.40
2019-01-10T13:15:55.345Z,3.40
2019-01-10T13:16:55.332Z,3.10
2019-01-10T13:17:55.324Z,3.30